Latest Weather Observations for Thredbo Top Station

IDN60901

Issued at 11:21 am EDT Saturday 7 March 2015 (issued every 10 minutes, with the page automatically refreshed every 10 minutes)

About weather observations | Map of Canberra area stations | Latest observations for Canberra area | Other Formats
Station Details ID: 071032 Name: THREDBO AWS Lat: -36.49 Lon: 148.29 Height: 1957.0 m
Data from the previous 72 hours. | See also: Recent months at Thredbo Top Station
Date/Time
EDT
Tmp

°C
App
Tmp
°C
Dew
Point
°C
Rel
Hum
%
Delta-T

°C
Wind Press
QNH
hPa
Press
MSL
hPa
Rain
since
9 am
mm
Dir
 
Spd
km/h
Gust
km/h
Spd
kts
Gust
kts
07/11:00am 11.9 3.6 2.4 52 4.5 NW 35 46 19 25 1013.2 1010.7 0.0
07/10:30am 11.9 4.0 4.4 60 3.7 NW 35 44 19 24 1013.3 1010.8 0.0
07/10:00am 11.7 4.3 4.9 63 3.4 NW 33 43 18 23 1013.2 1010.7 0.0
07/09:30am 10.9 2.7 4.8 66 3.0 NW 37 48 20 26 1013.1 1010.6 0.0
07/09:00am 10.1 2.1 1.5 55 3.9 NW 33 46 18 25 1013.1 1010.6 0.0
07/08:30am 9.4 1.5 0.8 55 3.8 NW 32 41 17 22 1013.5 1011.0 0.0
07/08:00am 8.4 -0.3 -0.4 54 3.8 NW 35 44 19 24 1013.4 1010.9 0.0
07/07:30am 7.3 -0.4 -0.4 58 3.3 NW 30 33 16 18 1013.4 1010.9 0.0
07/07:00am 6.6 -0.5 -1.1 58 3.2 NW 26 33 14 18 1013.0 1010.4 0.0
07/06:30am 8.7 2.6 -2.0 47 4.4 WNW 20 28 11 15 1012.7 1010.2 0.0
07/05:30am 8.1 2.6 -2.0 49 4.1 WNW 17 22 9 12 1012.5 1010.0 0.0
07/05:00am 9.6 4.0 -2.7 42 5.1 W 17 24 9 13 1012.5 1010.0 0.0
07/04:30am 8.9 3.4 -2.4 45 4.6 WSW 17 19 9 10 1012.4 1009.8 0.0
07/04:00am 6.0 0.2 -0.1 65 2.6 WNW 20 26 11 14 1012.6 1010.1 0.0
07/03:30am 6.1 -1.4 1.2 71 2.1 WNW 30 37 16 20 1012.6 1010.1 0.0
07/03:00am 7.9 1.6 -3.6 44 4.5 W 20 28 11 15 1012.5 1010.0 0.0
07/02:30am 8.7 2.6 -3.5 42 4.9 WSW 19 22 10 12 1012.5 1010.0 0.0
07/02:00am 8.5 2.4 -2.7 45 4.5 WSW 20 26 11 14 1012.8 1010.3 0.0
07/01:30am 8.5 1.8 -0.8 52 3.9 WSW 24 39 13 21 1013.0 1010.4 0.0
07/01:00am 8.0 1.1 0.3 58 3.3 W 26 37 14 20 1013.0 1010.4 0.0
07/12:30am 7.3 0.3 -0.4 58 3.3 W 26 33 14 18 1012.6 1010.1 0.0
 
Date/Time
EDT
Tmp

°C
App
Tmp
°C
Dew
Point
°C
Rel
Hum
%
Delta-T

°C
Wind Press
QNH
hPa
Press
MSL
hPa
Rain
since
9 am
mm
Dir
 
Spd
km/h
Gust
km/h
Spd
kts
Gust
kts
06/11:58pm 6.5 -0.4 2.6 76 1.8 W 28 44 15 24 1012.8 1010.3 0.0
06/11:30pm 8.1 -1.3 -2.8 46 4.4 WSW 37 46 20 25 1012.7 1010.2 0.0
06/11:00pm 9.0 0.8 -3.9 40 5.1 WSW 30 39 16 21 1012.5 1010.0 0.0
06/10:30pm 8.7 -0.5 -4.1 40 5.0 WSW 35 46 19 25 1012.3 1009.7 0.0
06/10:00pm 6.5 0.5 3.5 81 1.4 W 24 35 13 19 1012.6 1010.1 0.0
06/09:30pm 5.1 -1.0 4.7 97 0.2 WNW 26 35 14 19 1012.5 1010.0 0.0
06/09:00pm 5.0 -1.1 4.7 98 0.1 WNW 26 35 14 19 1012.5 1010.0 0.0
06/08:30pm 5.1 0.3 4.5 96 0.3 WNW 19 24 10 13 1012.2 1009.6 0.0
06/08:00pm 5.5 0.7 4.8 95 0.3 WNW 19 30 10 16 1011.8 1009.3 0.0
06/07:30pm 5.4 -0.3 5.0 97 0.2 NW 24 33 13 18 1011.4 1008.8 0.0
06/07:00pm 5.6 -0.1 4.9 95 0.3 NW 24 37 13 20 1011.2 1008.7 0.0
06/06:30pm 6.1 0.7 4.7 91 0.7 WNW 22 39 12 21 1010.9 1008.3 0.0
06/06:00pm 6.1 0.5 5.2 94 0.4 NW 24 37 13 20 1010.8 1008.2 0.0
06/05:40pm 6.1 -0.4 4.9 92 0.6 WNW 28 48 15 26 1010.3 1007.7 0.0
06/05:30pm 6.3 -0.5 4.9 91 0.7 WNW 30 41 16 22 1010.1 1007.5 0.0
06/05:00pm 6.2 -0.6 5.0 92 0.6 WNW 30 41 16 22 1009.8 1007.1 0.0
06/04:30pm 6.3 -0.2 4.8 90 0.7 WNW 28 43 15 23 1009.8 1007.1 0.0
06/04:19pm 6.7 -0.5 5.0 89 0.8 WNW 32 50 17 27 1009.6 1007.0 0.0
06/04:00pm 7.2 -0.7 4.5 83 1.3 W 35 48 19 26 1009.5 1006.9 0.0
06/03:30pm 7.6 -1.0 4.4 80 1.5 W 39 57 21 31 1009.4 1006.8 0.0
06/03:14pm 8.1 -0.5 4.9 80 1.5 W 39 57 21 31 1009.8 1007.1 0.0
06/03:00pm 6.8 -2.6 4.3 84 1.2 WNW 43 57 23 31 1009.5 1006.9 0.0
06/02:31pm 6.1 -2.6 3.9 86 1.0 WNW 39 57 21 31 1009.6 1007.0 0.0
06/02:30pm 6.4 -2.2 4.4 87 0.9 WNW 39 54 21 29 1009.8 1007.1 0.0
06/02:00pm 5.0 -4.8 3.5 90 0.7 WNW 44 59 24 32 1009.3 1006.7 0.0
06/01:35pm 6.1 -3.4 3.8 85 1.1 WNW 43 63 23 34 1009.3 1006.7 0.0
06/01:30pm 6.1 -3.4 3.8 85 1.1 WNW 43 59 23 32 1009.2 1006.6 0.0
06/01:00pm 7.3 -1.0 4.3 81 1.4 W 37 61 20 33 1009.5 1006.9 0.0
06/12:30pm 7.3 -1.4 3.9 79 1.6 W 39 61 21 33 1009.8 1007.1 0.0
06/12:00pm 6.8 -0.8 3.9 82 1.4 W 33 52 18 28 1009.9 1007.3 0.0
06/11:30am 5.5 -2.9 3.7 88 0.8 W 37 57 20 31 1009.9 1007.3 0.0
06/11:00am 5.8 -1.8 3.8 87 0.9 W 33 61 18 33 1009.8 1007.1 0.0
06/10:30am 5.4 -3.3 4.1 91 0.6 W 39 63 21 34 1009.5 1006.9 0.0
06/10:00am 5.1 -3.3 3.9 92 0.6 W 37 57 20 31 1009.3 1006.7 0.0
06/09:32am 5.0 -3.1 3.0 87 0.9 W 35 54 19 29 1009.2 1006.6 0.0
06/09:30am 5.2 -2.9 3.4 88 0.8 W 35 52 19 28 1008.8 1006.2 0.0
06/09:14am 5.2 -2.9 3.5 89 0.8 W 35 54 19 29 1009.1 1006.4 0.0
06/09:00am 4.8 -3.4 2.7 86 0.9 W 35 50 19 27 1009.0 1006.3 -
06/08:30am 5.9 -2.3 2.5 79 1.5 WNW 35 54 19 29 1008.4 1005.7 -
06/08:05am 4.6 -3.2 1.8 82 1.2 W 32 50 17 27 1008.7 1006.1 -
06/08:00am 4.3 -3.8 1.3 81 1.3 W 33 50 18 27 1008.8 1006.2 -
06/07:36am 3.4 -4.8 0.6 82 1.2 WNW 33 56 18 30 1009.0 1006.3 -
06/07:30am 2.1 -6.4 -1.9 75 1.5 WNW 33 46 18 25 1009.0 1006.3 -
06/07:18am 2.2 -6.3 -1.9 74 1.6 WNW 33 52 18 28 1009.0 1006.3 -
06/07:00am 1.1 -8.7 -3.2 73 1.7 WNW 39 52 21 28 1009.0 1006.3 -
06/06:30am 2.0 -8.7 -4.3 63 2.4 WNW 43 61 23 33 1007.5 1004.8 -
06/06:26am 2.4 -8.3 -4.1 62 2.4 WNW 43 61 23 33 1007.4 1004.7 -
06/06:00am 1.2 -10.1 -4.6 65 2.1 WNW 46 59 25 32 1007.7 1005.0 -
06/05:30am 2.0 -10.5 -5.2 59 2.7 WNW 52 67 28 36 1008.0 1005.4 -
06/05:16am 1.5 -10.2 -4.8 63 2.3 NW 48 69 26 37 1008.3 1005.6 -
06/05:00am 1.0 -10.3 -4.6 66 2.1 WNW 46 61 25 33 1008.7 1006.1 -
06/04:30am 2.3 -9.4 -4.4 61 2.6 WNW 48 67 26 36 1009.0 1006.3 -
06/04:20am 1.1 -10.2 -4.9 64 2.2 WNW 46 67 25 36 1009.0 1006.3 -
06/04:00am 1.3 -11.2 -5.2 62 2.4 NW 52 63 28 34 1009.0 1006.3 -
06/03:34am 1.3 -11.6 -5.6 60 2.5 NW 54 72 29 39 1009.5 1006.9 -
06/03:30am 1.5 -11.8 -5.6 59 2.6 NW 56 72 30 39 1009.5 1006.9 -
06/03:20am 1.3 -11.3 -6.5 56 2.7 NW 52 70 28 38 1009.4 1006.8 -
06/03:00am 1.4 -11.9 -5.5 60 2.5 NW 56 70 30 38 1009.4 1006.8 -
06/02:50am 1.0 -11.2 -6.1 59 2.5 WNW 50 70 27 38 1009.6 1007.0 -
06/02:30am 1.8 -10.0 -5.3 59 2.6 WNW 48 61 26 33 1010.1 1007.5 -
06/02:01am 1.2 -11.2 -7.5 52 2.9 NW 50 69 27 37 1011.1 1008.6 -
06/02:00am 1.2 -11.6 -7.8 51 3.0 NW 52 69 28 37 1011.1 1008.6 -
06/01:30am 1.6 -12.1 -9.9 42 3.7 NW 56 80 30 43 1011.1 1008.6 -
06/01:12am 1.4 -12.7 -7.6 51 3.1 NW 59 78 32 42 1010.9 1008.3 -
06/01:00am 1.8 -12.4 -9.1 44 3.6 NW 59 74 32 40 1011.1 1008.6 -
06/12:30am 2.2 -11.6 -9.1 43 3.8 NW 57 80 31 43 1011.8 1009.3 0.0
06/12:17am 2.1 -11.4 -7.2 50 3.3 NW 56 74 30 40 1011.7 1009.1 0.0
06/12:00am 2.3 -11.1 -6.8 51 3.2 NW 56 70 30 38 1011.9 1009.4 0.0
 
Date/Time
EDT
Tmp

°C
App
Tmp
°C
Dew
Point
°C
Rel
Hum
%
Delta-T

°C
Wind Press
QNH
hPa
Press
MSL
hPa
Rain
since
9 am
mm
Dir
 
Spd
km/h
Gust
km/h
Spd
kts
Gust
kts
05/11:30pm 2.7 -10.4 -7.2 48 3.5 NW 54 72 29 39 1012.2 1009.6 0.0
05/11:28pm 2.7 -10.4 -7.2 48 3.5 NW 54 72 29 39 1012.3 1009.7 0.0
05/11:00pm 2.8 -9.5 -6.8 49 3.5 NW 50 63 27 34 1012.8 1010.3 0.0
05/10:30pm 2.9 -9.1 -7.3 47 3.6 NW 48 61 26 33 1013.3 1010.8 0.0
05/10:00pm 3.0 -6.1 -7.5 46 3.7 WNW 33 48 18 26 1013.8 1011.3 0.0
05/09:59pm 3.0 -6.1 -7.5 46 3.7 WNW 33 48 18 26 1013.9 1011.4 0.0
05/09:30pm 2.9 -5.3 -7.3 47 3.6 W 28 39 15 21 1014.1 1011.6 0.0
05/09:00pm 2.9 -5.1 -6.2 51 3.3 W 28 39 15 21 1013.8 1011.3 0.0
05/08:38pm 3.0 -5.1 -7.2 47 3.6 W 28 50 15 27 1013.5 1011.0 0.0
05/08:30pm 2.9 -4.3 -5.0 56 2.8 W 24 35 13 19 1013.5 1011.0 0.0
05/08:00pm 3.1 -3.1 -4.8 56 2.9 W 19 28 10 15 1013.3 1010.8 0.0
05/07:30pm 3.4 -2.4 -5.0 54 3.0 W 17 24 9 13 1013.3 1010.8 0.0
05/07:00pm 3.8 -2.6 -6.5 47 3.6 WSW 19 28 10 15 1013.1 1010.6 0.0
05/06:30pm 4.8 -2.5 -6.7 43 4.0 WSW 24 39 13 21 1013.1 1010.6 0.0
05/06:00pm 5.2 -2.9 -6.6 42 4.2 SW 28 43 15 23 1013.0 1010.4 0.0
05/05:41pm 5.2 -3.7 -7.3 40 4.4 WSW 32 52 17 28 1012.7 1010.2 0.0
05/05:30pm 5.5 -2.9 -5.8 44 4.1 WSW 30 46 16 25 1013.0 1010.4 0.0
05/05:00pm 5.9 -2.5 -6.3 41 4.4 SW 30 48 16 26 - - 0.0
05/04:30pm 5.9 -2.4 -5.4 44 4.2 SSW 30 57 16 31 - - 0.0
05/04:15pm 6.0 -2.8 -6.2 41 4.4 SW 32 50 17 27 - - 0.0
05/04:00pm 5.8 -3.3 -7.7 37 4.7 SW 33 48 18 26 - - 0.0
05/03:33pm 5.8 -3.1 -6.7 40 4.5 SW 32 50 17 27 - - 0.0
05/03:30pm 6.1 -2.6 -5.5 43 4.3 SW 32 46 17 25 - - 0.0
05/03:10pm 5.9 -1.2 -4.0 49 3.8 SW 24 46 13 25 - - 0.0
05/03:00pm 5.8 -0.9 -4.1 49 3.8 WSW 22 35 12 19 - - 0.0
05/02:30pm 5.9 -0.6 -2.4 55 3.3 SW 22 32 12 17 - - 0.0
05/02:00pm 4.9 -2.9 -3.4 55 3.2 SW 28 43 15 23 - - 0.0
05/01:41pm 5.0 -2.6 -2.3 59 2.9 SW 28 46 15 25 - - 0.0
05/01:30pm 4.4 -4.1 -3.4 57 3.0 SW 32 48 17 26 - - 0.0
05/01:04pm 4.6 -3.6 -3.9 54 3.2 SW 30 50 16 27 - - 0.0
05/01:00pm 5.0 -3.1 -3.0 56 3.1 SW 30 41 16 22 - - 0.0
05/12:32pm 3.7 -4.6 -4.7 54 3.1 SW 30 48 16 26 - - 0.0
05/12:30pm 4.7 -3.8 -3.6 55 3.2 SW 32 48 17 26 - - 0.0
05/12:05pm 4.2 -5.8 -4.5 53 3.2 SW 39 57 21 31 - - 0.0
05/12:00pm 3.3 -7.6 -6.4 49 3.6 SW 43 57 23 31 - - 0.0
05/11:32am 4.3 -3.8 -2.8 60 2.7 SW 30 48 16 26 - - 0.0
05/11:30am 3.8 -4.7 -3.7 58 2.8 SW 32 44 17 24 - - 0.0
05/11:00am 3.5 -5.5 -6.2 49 3.4 WSW 33 46 18 25 - - 0.0
05/10:43am 3.8 -5.1 -5.1 52 3.2 WSW 33 52 18 28 - - 0.0
05/10:30am 3.6 -5.8 -6.4 48 3.5 SW 35 52 19 28 - - 0.0
05/10:27am 3.9 -4.9 -5.8 49 3.5 SW 32 52 17 28 - - 0.0
05/10:00am 4.3 -4.3 -0.1 73 1.8 SW 35 50 19 27 - - 0.0
05/09:30am 3.7 -4.2 1.3 84 1.0 WSW 32 54 17 29 - - 0.0
05/09:13am 3.1 -3.5 2.1 93 0.4 W 26 50 14 27 1010.6 1008.0 0.0
05/09:00am 3.1 -3.5 1.9 92 0.5 WNW 26 37 14 20 1010.4 1007.9 0.0
05/08:30am 3.4 -4.9 2.2 92 0.5 W 35 56 19 30 1010.4 1007.9 0.0
05/08:00am 3.6 -4.3 2.0 89 0.7 WNW 33 59 18 32 1010.0 1007.4 0.0
05/07:30am 3.4 -4.4 2.8 96 0.3 WNW 33 56 18 30 1009.4 1006.8 0.0
05/07:00am 3.5 -3.3 2.9 96 0.3 WNW 28 46 15 25 1009.1 1006.4 0.0
05/06:30am 3.6 -4.0 2.7 94 0.4 WNW 32 56 17 30 1009.6 1007.0 0.0
05/06:21am 3.6 -3.6 3.2 97 0.2 WNW 30 46 16 25 1009.4 1006.8 0.0
05/06:18am 3.4 -3.8 3.0 97 0.2 WNW 30 46 16 25 1009.3 1006.7 0.0
05/06:05am 3.5 -5.4 3.1 97 0.2 NW 39 57 21 31 1009.3 1006.7 0.0
05/06:00am 3.8 -5.9 2.9 94 0.4 NNW 43 59 23 32 1009.2 1006.6 0.0
05/05:37am 3.7 -5.2 3.1 96 0.3 NW 39 57 21 31 1009.2 1006.6 0.0
05/05:30am 3.8 -5.9 2.9 94 0.4 NW 43 57 23 31 1009.1 1006.4 0.0
05/05:11am 4.1 -6.9 2.9 92 0.5 NNW 50 69 27 37 1009.0 1006.3 0.0
05/05:00am 4.1 -8.1 2.9 92 0.5 NNW 56 70 30 38 1008.8 1006.2 0.0
05/04:30am 4.6 -8.6 2.6 87 0.9 NNW 61 74 33 40 1009.2 1006.6 0.0
05/04:01am 4.8 -7.6 2.5 85 1.0 NNW 57 76 31 41 1009.4 1006.8 0.0
05/04:00am 4.8 -7.6 2.5 85 1.0 NNW 57 72 31 39 1009.4 1006.8 0.0
05/03:54am 5.0 -7.4 2.5 84 1.1 NNW 57 76 31 41 1009.5 1006.9 0.0
05/03:30am 5.3 -7.5 2.3 81 1.3 NNW 59 72 32 39 1009.6 1007.0 0.0
05/03:00am 5.5 -7.9 1.4 75 1.8 NNW 61 76 33 41 1009.9 1007.3 0.0
05/02:30am 5.8 -8.4 0.6 69 2.2 NNW 65 80 35 43 1010.1 1007.5 0.0
05/02:03am 6.1 -7.9 -0.6 62 2.8 NW 63 82 34 44 1010.3 1007.7 0.0
05/02:00am 6.2 -8.6 -0.7 61 2.9 NW 67 83 36 45 1010.4 1007.9 0.0
05/01:30am 6.7 -7.2 -2.7 51 3.7 NW 61 80 33 43 1010.4 1007.9 0.0
05/01:00am 7.1 -7.2 -2.9 49 4.0 NW 63 82 34 44 1010.7 1008.1 0.0
05/12:37am 7.4 -6.5 -2.1 51 3.9 NW 61 80 33 43 1011.0 1008.4 0.0
05/12:30am 7.3 -7.3 -2.2 51 3.8 NW 65 82 35 44 1011.1 1008.6 0.0
05/12:02am 7.5 -6.1 -2.8 48 4.1 NW 59 78 32 42 1011.2 1008.7 0.0
05/12:00am 7.6 -6.3 -2.7 48 4.1 NW 61 78 33 42 1011.2 1008.7 0.0
 
Date/Time
EDT
Tmp

°C
App
Tmp
°C
Dew
Point
°C
Rel
Hum
%
Delta-T

°C
Wind Press
QNH
hPa
Press
MSL
hPa
Rain
since
9 am
mm
Dir
 
Spd
km/h
Gust
km/h
Spd
kts
Gust
kts
04/11:30pm 7.8 -5.7 -2.2 49 4.1 NW 59 78 32 42 1011.5 1008.9 0.0
04/11:00pm 8.1 -6.3 -3.7 43 4.7 NW 63 85 34 46 1011.7 1009.1 0.0
04/10:30pm 8.2 -4.5 -3.3 44 4.6 NW 54 78 29 42 1012.4 1009.8 0.0
04/10:02pm 8.8 -3.6 -4.4 39 5.2 NW 52 70 28 38 1012.8 1010.3 0.0
04/10:00pm 8.7 -3.7 -4.5 39 5.1 NW 52 69 28 37 1013.0 1010.4 0.0
04/09:30pm 9.0 -2.4 -5.6 35 5.6 NW 46 67 25 36 1013.2 1010.7 0.0
04/09:00pm 9.7 -1.8 -6.2 32 6.0 NW 46 65 25 35 1013.4 1010.9 0.0
04/08:30pm 9.9 -0.2 -5.6 33 6.0 NW 39 57 21 31 1013.4 1010.9 0.0
04/08:00pm 10.2 -0.7 -6.2 31 6.3 NW 43 61 23 33 1013.3 1010.8 0.0
04/07:41pm 10.3 0.6 -6.1 31 6.3 NW 37 59 20 32 1013.3 1010.8 0.0
04/07:30pm 10.5 1.8 -5.1 33 6.1 NW 32 46 17 25 1013.4 1010.9 0.0
04/07:00pm 11.3 2.4 -5.6 30 6.6 NW 33 50 18 27 1013.8 1011.3 0.0
04/06:36pm 12.2 2.8 -6.7 26 7.3 NW 35 54 19 29 1013.9 1011.4 0.0
04/06:30pm 12.3 2.1 -6.6 26 7.3 NW 39 54 21 29 1013.9 1011.4 0.0
04/06:23pm 12.5 3.1 -6.5 26 7.4 NW 35 54 19 29 1013.9 1011.4 0.0
04/06:00pm 13.1 2.8 -7.5 23 7.9 NW 39 54 21 29 1013.8 1011.3 0.0
04/05:30pm 13.6 2.9 -4.1 29 7.3 NNW 43 61 23 33 1013.6 1011.1 0.0
04/05:11pm 13.8 3.2 -3.0 31 7.1 NW 43 61 23 33 1013.6 1011.1 0.0
04/05:00pm 13.9 2.8 -2.5 32 7.1 NW 46 61 25 33 1013.8 1011.3 0.0
04/04:42pm 13.5 2.9 -1.6 35 6.6 NW 44 67 24 36 1013.8 1011.3 0.0
04/04:30pm 13.8 3.6 -0.3 38 6.3 NW 43 57 23 31 1014.0 1011.5 0.0
04/04:17pm 13.7 4.9 1.4 43 5.7 NW 37 57 20 31 1014.2 1011.7 0.0
04/04:00pm 13.8 5.1 1.8 44 5.7 NW 37 48 20 26 1014.3 1011.8 0.0
04/03:30pm 13.9 4.7 1.2 42 5.9 NW 39 59 21 32 1014.4 1012.0 0.0
04/03:00pm 14.3 6.2 1.2 41 6.1 NW 33 52 18 28 1015.1 1012.7 0.0
04/02:34pm 13.8 6.5 -0.3 38 6.3 NW 28 54 15 29 1015.2 1012.8 0.0
04/02:30pm 14.5 7.8 1.4 41 6.1 WNW 26 39 14 21 1015.2 1012.8 0.0
04/02:00pm 14.4 5.9 -2.1 32 7.2 NW 33 46 18 25 1015.2 1012.8 0.0
04/01:30pm 14.5 4.9 -8.2 20 8.7 WNW 35 50 19 27 1015.5 1013.0 0.0
04/01:25pm 14.8 5.6 -11.5 15 9.4 WNW 32 50 17 27 1015.5 1013.0 0.0
04/01:00pm 15.1 6.3 -5.9 23 8.5 NW 32 46 17 25 1015.9 1013.5 0.0
04/12:30pm 14.8 6.9 -9.3 18 9.0 NW 26 39 14 21 1016.3 1013.8 0.0
04/12:00pm 14.7 6.8 -8.7 19 8.9 NW 26 39 14 21 1016.6 1014.2 0.0
04/11:30am 14.3 6.1 -8.3 20 8.6 NW 28 43 15 23 1017.2 1014.8 0.0

Latest Capital City Observations: Canberra | Sydney | Melbourne | Brisbane | Adelaide | Perth | Hobart | Darwin

Other Formats:

Comma delimited format used in spreadsheet applications
http://www.bom.gov.au/fwo/IDN60903/IDN60903.95909.axf

JavaScript Object Notation format (JSON) in row-major order
http://www.bom.gov.au/fwo/IDN60903/IDN60903.95909.json